Time;durP1;ratioP1;P1;durP2;ratioP2;P2;SDS_P1;SDS_P2;PMS_P1;PMS_P2;Temp;Humidity;BMP_temperature;BMP_pressure;BME280_temperature;BME280_humidity;BME280_pressure;Samples;Min_cycle;Max_cycle;Signal;HPM_P1;HPM_P2
2022/07/28 00:00:16;;;;;;;5.22;4.84;;;;;;;21.78;68.87;100510.63;466548;113;923116;-77
2022/07/28 00:01:19;;;;;;;5.17;4.54;;;;;;;21.77;68.83;100514.55;460127;113;922920;-77
2022/07/28 00:02:22;;;;;;;5.31;4.93;;;;;;;21.75;68.81;100511.22;457366;115;923149;-77
2022/07/28 00:03:25;;;;;;;5.96;5.06;;;;;;;21.75;68.73;100514.83;457348;115;922511;-77
2022/07/28 00:04:29;;;;;;;5.37;4.77;;;;;;;21.73;68.82;100514.28;457271;114;922901;-77
2022/07/28 00:05:32;;;;;;;5.06;4.76;;;;;;;21.72;68.73;100520.97;457411;115;922580;-77
2022/07/28 00:06:37;;;;;;;7.75;5.12;;;;;;;21.72;68.74;100517.37;457224;115;922517;-77
2022/07/28 00:07:40;;;;;;;5.06;4.76;;;;;;;21.71;68.84;100516.53;461588;115;930571;-77
2022/07/28 00:08:43;;;;;;;5.44;4.73;;;;;;;21.71;68.87;100516.53;461653;115;923345;-77
2022/07/28 00:09:46;;;;;;;5.41;4.54;;;;;;;21.72;68.89;100514.59;461642;115;922598;-77
2022/07/28 00:10:49;;;;;;;4.81;4.45;;;;;;;21.72;68.87;100511.81;461621;115;922512;-78
2022/07/28 00:11:52;;;;;;;5.45;5.08;;;;;;;21.73;68.80;100513.45;461595;115;922512;-77
2022/07/28 00:12:58;;;;;;;5.42;4.93;;;;;;;21.72;68.82;100517.37;461425;115;922667;-77
2022/07/28 00:14:01;;;;;;;7.64;4.54;;;;;;;21.71;68.79;100515.70;461399;115;923173;-78
2022/07/28 00:15:06;;;;;;;5.26;4.69;;;;;;;21.69;68.77;100507.66;457300;115;924923;-78
2022/07/28 00:16:09;;;;;;;5.40;4.82;;;;;;;21.68;68.73;100503.22;453535;117;922614;-78
2022/07/28 00:17:13;;;;;;;5.28;4.91;;;;;;;21.66;68.71;100510.20;453715;117;922514;-78
2022/07/28 00:18:16;;;;;;;5.22;4.59;;;;;;;21.66;68.77;100515.75;453721;117;922624;-78
2022/07/28 00:19:19;;;;;;;6.64;4.53;;;;;;;21.64;68.80;100510.48;453650;116;923074;-77
2022/07/28 00:20:22;;;;;;;5.17;4.79;;;;;;;21.62;68.88;100502.44;453644;117;922954;-78
2022/07/28 00:21:25;;;;;;;5.29;4.88;;;;;;;21.64;68.93;100513.25;453712;116;923258;-78
2022/07/28 00:22:28;;;;;;;5.90;5.28;;;;;;;21.63;69.00;100508.81;453738;116;922576;-78
2022/07/28 00:23:31;;;;;;;5.22;4.79;;;;;;;21.64;69.07;100504.92;453678;117;922522;-78
2022/07/28 00:24:36;;;;;;;4.94;4.57;;;;;;;21.63;69.04;100506.88;453451;116;922710;-78
2022/07/28 00:25:39;;;;;;;5.46;4.90;;;;;;;21.63;69.07;100512.42;453794;117;922643;-78
2022/07/28 00:26:42;;;;;;;5.42;4.97;;;;;;;21.63;69.12;100506.88;453710;117;922585;-78
2022/07/28 00:27:47;;;;;;;5.62;4.95;;;;;;;21.64;69.00;100511.31;453473;117;922634;-78
2022/07/28 00:28:50;;;;;;;5.31;4.90;;;;;;;21.63;68.89;100506.88;453753;116;922633;-78
2022/07/28 00:29:53;;;;;;;5.96;4.73;;;;;;;21.63;68.81;100509.65;456216;115;922553;-78
2022/07/28 00:30:56;;;;;;;5.11;4.74;;;;;;;21.61;68.70;100509.09;457191;115;922616;-77
2022/07/28 00:32:01;;;;;;;5.42;4.51;;;;;;;21.59;68.67;100508.58;456608;115;922942;-78
2022/07/28 00:33:05;;;;;;;5.31;4.81;;;;;;;21.57;68.64;100505.25;457368;115;923076;-78
2022/07/28 00:34:08;;;;;;;5.24;4.61;;;;;;;21.55;68.65;100506.67;462387;113;922578;-78
2022/07/28 00:35:11;;;;;;;6.12;4.78;;;;;;;21.53;68.64;100508.90;466550;113;922620;-78
2022/07/28 00:36:15;;;;;;;5.09;4.70;;;;;;;21.51;68.63;100514.73;466418;113;922540;-78
2022/07/28 00:37:18;;;;;;;5.67;4.51;;;;;;;21.48;68.61;100501.45;466458;113;923075;-78
2022/07/28 00:38:21;;;;;;;6.05;4.97;;;;;;;21.48;68.71;100506.16;466477;113;922981;-77
2022/07/28 00:39:25;;;;;;;5.33;4.76;;;;;;;21.47;68.74;100510.05;466233;113;923069;-79
2022/07/28 00:41:52;;;;;;;5.31;4.58;;;;;;;21.44;68.79;100513.42;466316;113;922528;-78
2022/07/28 00:42:55;;;;;;;5.86;5.46;;;;;;;21.43;68.85;100522.85;466446;113;922925;-78
2022/07/28 00:43:58;;;;;;;5.21;4.82;;;;;;;21.42;68.89;100526.73;466453;113;922555;-78
2022/07/28 00:45:01;;;;;;;6.71;4.73;;;;;;;21.41;68.90;100520.36;466487;113;923006;-78
2022/07/28 00:46:04;;;;;;;5.03;4.41;;;;;;;21.41;69.04;100517.58;466458;113;922911;-78
2022/07/28 00:47:07;;;;;;;5.42;5.03;;;;;;;21.40;68.97;100520.63;466547;113;922577;-79
2022/07/28 00:48:10;;;;;;;7.12;5.82;;;;;;;21.41;68.95;100527.84;466573;113;922796;-78
2022/07/28 00:49:14;;;;;;;6.14;5.29;;;;;;;21.38;69.03;100520.94;466545;113;922960;-78
2022/07/28 00:50:19;;;;;;;4.95;4.54;;;;;;;21.38;69.11;100520.94;466164;113;922521;-78
2022/07/28 00:51:25;;;;;;;6.09;5.44;;;;;;;21.38;69.00;100523.72;466510;113;922479;-78
2022/07/28 00:52:28;;;;;;;4.79;4.39;;;;;;;21.38;69.01;100525.66;466378;113;922673;-78
2022/07/28 00:53:31;;;;;;;4.86;4.42;;;;;;;21.36;68.98;100525.11;466538;113;922620;-78
2022/07/28 00:54:35;;;;;;;5.14;4.70;;;;;;;21.37;69.06;100524.00;466489;113;922606;-78
2022/07/28 00:55:40;;;;;;;6.10;5.18;;;;;;;21.35;69.00;100520.67;466416;113;923106;-78
2022/07/28 00:56:45;;;;;;;5.16;4.69;;;;;;;21.34;69.02;100522.61;463355;113;922580;-77
2022/07/28 00:57:48;;;;;;;5.66;5.19;;;;;;;21.33;69.01;100520.98;448761;113;923070;-78
2022/07/28 00:58:51;;;;;;;5.73;5.27;;;;;;;21.32;69.02;100524.03;447483;118;922567;-78
2022/07/28 00:59:54;;;;;;;5.36;4.96;;;;;;;21.31;69.05;100525.14;447372;116;922813;-78
2022/07/28 01:00:58;;;;;;;5.64;5.20;;;;;;;21.30;69.09;100523.48;447402;118;930547;-78
2022/07/28 01:02:02;;;;;;;4.57;4.22;;;;;;;21.30;69.14;100532.63;447451;118;923056;-78
2022/07/28 01:03:05;;;;;;;6.17;5.21;;;;;;;21.31;69.10;100533.47;447284;118;922594;-78
2022/07/28 01:04:09;;;;;;;5.34;4.89;;;;;;;21.31;69.10;100536.23;447328;116;924239;-78
2022/07/28 01:05:13;;;;;;;5.45;4.93;;;;;;;21.31;69.22;100533.47;447373;118;930475;-78
2022/07/28 01:06:44;;;;;;;4.96;4.66;;;;;;;21.32;69.21;100526.80;447268;118;922614;-78
2022/07/28 01:08:12;;;;;;;4.64;4.29;;;;;;;21.33;69.21;100531.24;449322;118;923119;-78
2022/07/28 01:09:25;;;;;;;6.22;5.05;;;;;;;21.33;69.20;100525.70;449021;116;922633;-78
2022/07/28 01:10:45;;;;;;;6.01;5.32;;;;;;;21.33;69.04;100526.53;449134;117;922628;-78
2022/07/28 01:12:11;;;;;;;6.06;4.87;;;;;;;21.31;68.94;100534.30;449365;118;922549;-78
2022/07/28 01:13:34;;;;;;;5.04;4.62;;;;;;;21.28;69.00;100520.98;449321;118;922518;-77
2022/07/28 01:14:49;;;;;;;5.08;4.73;;;;;;;21.25;68.87;100529.06;450279;116;922512;-78
2022/07/28 01:16:04;;;;;;;5.08;4.69;;;;;;;21.21;69.01;100531.59;456990;116;922592;-78
2022/07/28 01:17:17;;;;;;;7.11;4.82;;;;;;;21.20;69.12;100519.66;456998;116;922934;-78
2022/07/28 01:18:23;;;;;;;5.99;5.19;;;;;;;21.20;69.18;100527.98;456973;116;923079;-78
2022/07/28 01:19:53;;;;;;;5.85;5.10;;;;;;;21.19;69.17;100525.49;456966;116;922592;-78
2022/07/28 01:21:12;;;;;;;5.23;4.65;;;;;;;21.19;69.12;100525.49;456920;116;923064;-78
2022/07/28 01:22:19;;;;;;;5.36;4.78;;;;;;;21.17;69.09;100527.74;457030;116;922814;-78
2022/07/28 01:23:34;;;;;;;5.74;5.16;;;;;;;21.14;69.10;100529.13;457023;116;922614;-78
2022/07/28 01:24:44;;;;;;;5.16;4.73;;;;;;;21.14;69.22;100522.72;456995;116;922967;-78
2022/07/28 01:26:19;;;;;;;5.48;4.52;;;;;;;21.14;69.42;100526.36;456716;116;922573;-78
2022/07/28 01:27:42;;;;;;;5.04;4.58;;;;;;;21.16;69.45;100531.63;457015;116;922638;-78
2022/07/28 01:29:03;;;;;;;5.15;4.75;;;;;;;21.16;69.54;100526.91;457008;116;923315;-78
2022/07/28 01:30:25;;;;;;;5.33;4.87;;;;;;;21.18;69.47;100540.47;457850;115;922509;-78
2022/07/28 01:31:39;;;;;;;9.86;5.16;;;;;;;21.16;69.41;100538.00;449345;118;923114;-78
2022/07/28 01:32:46;;;;;;;5.17;4.82;;;;;;;21.15;69.27;100543.82;449317;118;923184;-78
2022/07/28 01:33:58;;;;;;;6.74;4.97;;;;;;;21.12;69.23;100539.63;453795;113;923020;-78
2022/07/28 01:35:10;;;;;;;5.95;5.37;;;;;;;21.10;69.18;100544.66;466223;113;923052;-78
2022/07/28 01:36:17;;;;;;;6.13;5.19;;;;;;;21.09;69.25;100544.92;466294;113;922580;-78
2022/07/28 01:37:27;;;;;;;6.26;5.46;;;;;;;21.08;69.30;100544.09;466281;113;923514;-78
2022/07/28 01:38:33;;;;;;;5.66;5.19;;;;;;;21.07;69.29;100542.43;466301;113;922561;-79
2022/07/28 01:39:40;;;;;;;6.01;5.31;;;;;;;21.07;69.24;100545.20;466240;113;922625;-78
2022/07/28 01:40:45;;;;;;;5.64;5.12;;;;;;;21.06;69.13;100542.74;466328;113;922857;-77
2022/07/28 01:41:52;;;;;;;7.51;5.32;;;;;;;21.05;69.14;100544.68;466050;113;922547;-78
2022/07/28 01:42:58;;;;;;;7.66;5.11;;;;;;;21.04;69.12;100548.56;466283;113;922978;-78
2022/07/28 01:44:08;;;;;;;5.66;5.19;;;;;;;21.04;69.04;100545.79;466164;113;923068;-78
2022/07/28 01:45:12;;;;;;;6.05;5.43;;;;;;;21.03;69.04;100546.90;466280;113;922519;-78
2022/07/28 01:46:19;;;;;;;5.78;5.29;;;;;;;21.03;69.11;100557.98;466299;113;922516;-78
2022/07/28 01:47:24;;;;;;;5.98;5.22;;;;;;;21.03;69.20;100557.98;466327;113;923094;-78
2022/07/28 01:48:28;;;;;;;5.42;4.96;;;;;;;21.04;69.11;100550.50;466340;113;923049;-78
2022/07/28 01:49:32;;;;;;;7.66;5.44;;;;;;;21.03;69.19;100548.84;466419;113;922650;-78
2022/07/28 01:50:36;;;;;;;5.73;5.29;;;;;;;21.04;69.02;100547.73;466417;113;923025;-79
2022/07/28 01:51:41;;;;;;;6.28;5.66;;;;;;;21.02;68.89;100550.78;466324;113;922542;-79
2022/07/28 01:52:47;;;;;;;11.81;6.01;;;;;;;21.00;68.94;100553.03;466254;113;930307;-78
2022/07/28 01:53:53;;;;;;;4.98;4.66;;;;;;;21.01;68.98;100554.66;453517;113;930564;-78
2022/07/28 01:54:58;;;;;;;5.56;4.93;;;;;;;21.00;68.96;100553.03;448223;118;922611;-79
2022/07/28 01:56:04;;;;;;;5.11;4.81;;;;;;;21.00;68.93;100549.42;448230;118;922522;-79
2022/07/28 01:57:13;;;;;;;5.23;4.89;;;;;;;20.99;68.87;100550.53;448310;118;922574;-78
2022/07/28 01:58:17;;;;;;;5.81;5.27;;;;;;;20.98;68.85;100551.64;448274;118;923243;-79
2022/07/28 01:59:23;;;;;;;6.79;5.04;;;;;;;20.97;68.87;100550.80;448244;118;923062;-78
2022/07/28 02:00:27;;;;;;;5.79;5.37;;;;;;;;;;448300;118;923089;-78
2022/07/28 02:01:35;;;;;;;5.41;4.91;;;;;;;20.94;68.81;100556.93;448404;118;923114;-78
2022/07/28 02:02:42;;;;;;;7.26;4.83;;;;;;;20.92;68.81;100556.38;448268;118;922622;-78
2022/07/28 02:03:46;;;;;;;5.50;5.08;;;;;;;20.91;68.83;100549.16;448275;118;922583;-78
2022/07/28 02:04:51;;;;;;;5.88;5.29;;;;;;;20.90;68.85;100555.81;448357;118;922748;-79
2022/07/28 02:05:56;;;;;;;5.71;5.25;;;;;;;20.90;68.85;100560.52;448300;118;922638;-78
2022/07/28 02:07:01;;;;;;;5.49;4.97;;;;;;;20.89;68.87;100565.27;451161;116;922547;-78
2022/07/28 02:08:06;;;;;;;6.55;5.92;;;;;;;20.90;68.94;100563.30;456371;116;930539;-78
2022/07/28 02:09:09;;;;;;;5.78;5.28;;;;;;;20.88;68.92;100569.15;456508;116;922872;-79
2022/07/28 02:10:16;;;;;;;6.04;5.51;;;;;;;20.89;68.96;100570.81;456481;116;922571;-78
2022/07/28 02:12:45;;;;;;;5.27;4.89;;;;;;;20.92;69.03;100569.40;456474;116;922702;-79
2022/07/28 02:13:50;;;;;;;5.67;5.13;;;;;;;20.92;69.00;100572.17;456536;116;922616;-79
2022/07/28 02:14:55;;;;;;;5.68;5.28;;;;;;;20.92;69.01;100563.86;457078;115;923086;-79
2022/07/28 02:15:59;;;;;;;5.34;4.94;;;;;;;20.92;68.98;100564.69;458154;115;922625;-79
2022/07/28 02:17:06;;;;;;;5.65;5.25;;;;;;;20.92;69.00;100570.23;458152;115;930452;-76
2022/07/28 02:18:10;;;;;;;5.79;5.39;;;;;;;20.93;68.99;100566.36;458161;115;922675;-79
2022/07/28 02:19:17;;;;;;;5.79;5.38;;;;;;;20.93;69.08;100571.90;458124;115;922821;-78
2022/07/28 02:20:21;;;;;;;6.14;5.71;;;;;;;20.93;69.03;100569.13;458150;115;923014;-78
2022/07/28 02:21:28;;;;;;;5.66;5.15;;;;;;;20.94;69.10;100568.02;458171;115;922840;-78
2022/07/28 02:22:33;;;;;;;5.63;5.18;;;;;;;20.97;69.09;100577.69;458087;115;930495;-78
2022/07/28 02:23:38;;;;;;;6.55;5.21;;;;;;;20.98;69.15;100574.64;458209;115;922427;-76
2022/07/28 02:24:43;;;;;;;5.74;5.28;;;;;;;20.99;69.18;100581.02;458112;115;930511;-77
2022/07/28 02:25:48;;;;;;;5.58;5.04;;;;;;;21.01;69.18;100576.00;458098;115;924519;-78
2022/07/28 02:26:58;;;;;;;5.66;5.17;;;;;;;21.02;69.12;100575.73;458130;115;922450;-79
2022/07/28 02:28:04;;;;;;;5.19;4.76;;;;;;;21.03;69.12;100577.39;456616;116;922662;-77
2022/07/28 02:29:11;;;;;;;5.90;5.37;;;;;;;21.04;69.11;100581.00;457142;115;923239;-77
2022/07/28 02:30:36;;;;;;;6.20;5.73;;;;;;;21.05;69.02;100579.89;456414;115;922559;-77
2022/07/28 02:31:46;;;;;;;5.24;4.83;;;;;;;21.04;68.96;100587.38;458162;115;922523;-79
2022/07/28 02:33:00;;;;;;;5.14;4.74;;;;;;;21.14;68.95;100583.72;477052;110;946972;-77
2022/07/28 02:34:07;;;;;;;6.47;5.95;;;;;;;21.04;68.97;100586.54;464869;114;922613;-79
2022/07/28 02:35:23;;;;;;;5.63;5.22;;;;;;;21.02;68.96;100584.05;457235;116;922581;-76
2022/07/28 02:36:30;;;;;;;5.88;4.88;;;;;;;21.03;68.95;100585.71;457275;116;923130;-76
2022/07/28 02:37:37;;;;;;;8.13;5.11;;;;;;;21.02;68.89;100580.44;457290;116;923001;-76
2022/07/28 02:38:43;;;;;;;6.45;5.89;;;;;;;21.02;68.88;100597.91;457326;116;923017;-77
2022/07/28 02:39:50;;;;;;;5.62;5.16;;;;;;;21.02;68.91;100597.91;457276;114;922902;-77
2022/07/28 02:40:59;;;;;;;9.42;6.04;;;;;;;21.02;68.92;100591.53;456534;115;922489;-77
2022/07/28 02:42:15;;;;;;;6.03;5.54;;;;;;;21.04;68.98;100589.31;457291;116;922561;-76
2022/07/28 02:43:22;;;;;;;6.41;5.91;;;;;;;21.05;68.94;100608.45;457227;115;922693;-77
2022/07/28 02:44:29;;;;;;;7.69;5.73;;;;;;;21.05;68.87;100604.84;457246;114;922902;-77
2022/07/28 02:45:34;;;;;;;6.02;5.58;;;;;;;21.04;68.79;100594.86;457312;116;922975;-77
2022/07/28 02:46:41;;;;;;;6.29;5.68;;;;;;;21.03;68.71;100588.48;457315;116;922958;-76
2022/07/28 02:47:49;;;;;;;6.29;5.77;;;;;;;21.02;68.66;100591.53;456781;115;923128;-77
2022/07/28 02:48:55;;;;;;;5.54;5.10;;;;;;;21.01;68.68;100585.15;457305;116;923051;-77
2022/07/28 02:50:01;;;;;;;5.78;5.37;;;;;;;20.99;68.68;100594.88;451123;114;922572;-77
2022/07/28 02:51:07;;;;;;;6.48;5.36;;;;;;;20.99;68.64;100600.42;446645;118;923083;-77
2022/07/28 02:52:12;;;;;;;5.88;5.42;;;;;;;20.98;68.60;100607.91;446593;118;922589;-77
2022/07/28 02:53:16;;;;;;;5.56;5.13;;;;;;;20.98;68.61;100604.30;446653;118;923007;-76
2022/07/28 02:54:20;;;;;;;5.94;5.32;;;;;;;20.97;68.60;100605.41;446697;116;922508;-76
2022/07/28 02:55:24;;;;;;;6.07;5.57;;;;;;;20.96;68.66;100604.58;446673;118;930573;-77
2022/07/28 02:56:29;;;;;;;5.82;5.34;;;;;;;20.96;68.64;100601.81;446681;118;922834;-77
2022/07/28 02:57:33;;;;;;;6.20;5.17;;;;;;;20.97;68.67;100608.19;446628;118;923086;-77
2022/07/28 02:58:37;;;;;;;6.05;5.49;;;;;;;20.96;68.72;100604.58;446790;118;922622;-77
2022/07/28 02:59:41;;;;;;;6.42;5.71;;;;;;;20.97;68.81;100613.73;446757;116;922562;-77
2022/07/28 03:00:46;;;;;;;5.34;4.87;;;;;;;20.99;68.84;100615.12;446744;118;922673;-77
2022/07/28 03:01:49;;;;;;;5.68;5.09;;;;;;;20.99;68.87;100604.03;446662;118;930480;-77
2022/07/28 03:02:55;;;;;;;6.22;5.76;;;;;;;21.01;68.82;100604.56;446742;118;922835;-77
2022/07/28 03:03:59;;;;;;;5.53;5.09;;;;;;;21.01;68.76;100599.02;446540;118;930599;-77
2022/07/28 03:05:03;;;;;;;6.04;5.51;;;;;;;21.04;68.72;100597.63;446723;116;922999;-77
2022/07/28 03:06:09;;;;;;;5.79;5.39;;;;;;;21.04;68.71;100608.72;445919;118;930545;-77
2022/07/28 03:07:12;;;;;;;5.86;5.48;;;;;;;21.04;68.70;100600.41;455157;115;922761;-76
2022/07/28 03:08:18;;;;;;;6.44;5.87;;;;;;;21.05;68.71;100596.52;461758;115;922529;-77
2022/07/28 03:09:21;;;;;;;5.73;5.32;;;;;;;21.05;68.71;100596.52;461488;115;922596;-77
2022/07/28 03:10:26;;;;;;;7.30;5.42;;;;;;;21.06;68.69;100598.19;461628;114;923050;-76
2022/07/28 03:11:31;;;;;;;5.83;5.42;;;;;;;21.06;68.67;100598.98;460752;115;930569;-77
2022/07/28 03:12:34;;;;;;;6.03;5.63;;;;;;;21.08;68.66;100607.03;461727;115;922843;-79
2022/07/28 03:13:38;;;;;;;5.71;5.31;;;;;;;21.09;68.60;100597.61;461766;115;922647;-76
2022/07/28 03:14:41;;;;;;;5.75;5.28;;;;;;;21.10;68.65;100596.50;460378;115;922588;-76
2022/07/28 03:15:44;;;;;;;6.87;5.36;;;;;;;21.11;68.69;100598.16;453843;117;922580;-77
2022/07/28 03:16:47;;;;;;;5.74;5.31;;;;;;;21.11;68.75;100596.22;453843;117;923032;-76
2022/07/28 03:17:52;;;;;;;5.73;5.33;;;;;;;21.14;68.73;100595.67;453506;117;922551;-76
2022/07/28 03:18:55;;;;;;;5.76;5.37;;;;;;;21.16;68.70;100607.32;453877;117;922718;-76
2022/07/28 03:19:58;;;;;;;5.95;5.50;;;;;;;21.17;68.71;100603.41;453834;117;922890;-76
2022/07/28 03:21:01;;;;;;;7.59;5.65;;;;;;;21.18;68.70;100607.02;453847;117;922577;-76
2022/07/28 03:22:05;;;;;;;5.94;5.56;;;;;;;21.20;68.70;100602.03;453729;116;922656;-77
2022/07/28 03:23:10;;;;;;;6.12;5.72;;;;;;;21.23;68.63;100603.41;453620;116;922568;-76
2022/07/28 03:24:13;;;;;;;7.80;5.93;;;;;;;21.23;68.54;100599.50;453798;117;922500;-79
2022/07/28 03:25:20;;;;;;;6.46;5.91;;;;;;;21.25;68.50;100598.39;453754;117;922576;-77
2022/07/28 03:26:36;;;;;;;6.35;5.90;;;;;;;21.25;68.51;100595.63;453543;116;930523;-76
2022/07/28 03:27:42;;;;;;;6.59;5.96;;;;;;;21.25;68.49;100599.22;452842;117;922516;-76
2022/07/28 03:28:47;;;;;;;6.20;5.76;;;;;;;21.26;68.48;100608.38;453684;117;922484;-76
2022/07/28 03:30:03;;;;;;;7.17;6.53;;;;;;;21.27;68.47;100607.27;455881;115;922833;-79
2022/07/28 03:31:10;;;;;;;7.04;6.39;;;;;;;21.27;68.43;100607.27;449203;117;923270;-77
2022/07/28 03:32:13;;;;;;;6.63;6.18;;;;;;;21.26;68.50;100605.60;449499;118;922575;-77
2022/07/28 03:33:17;;;;;;;7.45;6.64;;;;;;;21.26;68.62;100609.21;451146;117;922623;-77
2022/07/28 03:34:20;;;;;;;7.21;6.61;;;;;;;21.26;68.62;100609.21;457280;113;922649;-77
2022/07/28 03:35:24;;;;;;;7.08;6.56;;;;;;;21.27;68.67;100615.59;459057;115;922981;-77
2022/07/28 03:36:32;;;;;;;6.68;6.17;;;;;;;21.28;68.69;100618.05;458912;115;922811;-77
2022/07/28 03:37:41;;;;;;;7.67;6.45;;;;;;;21.28;68.72;100612.51;458643;115;922565;-77
2022/07/28 03:38:53;;;;;;;7.32;6.81;;;;;;;21.31;68.77;100616.67;458624;115;922546;-76
2022/07/28 03:40:08;;;;;;;7.06;6.51;;;;;;;21.43;68.83;100618.00;479398;111;950327;-78
2022/07/28 03:41:14;;;;;;;7.48;6.83;;;;;;;21.35;68.89;100617.75;470904;112;922553;-77
2022/07/28 03:42:19;;;;;;;7.47;6.87;;;;;;;21.36;68.90;100619.41;470900;112;922940;-77
2022/07/28 03:43:25;;;;;;;7.20;6.54;;;;;;;21.37;68.92;100618.30;470940;112;922584;-76
2022/07/28 03:44:28;;;;;;;7.27;6.21;;;;;;;21.40;68.95;100617.72;470877;112;922708;-77
2022/07/28 03:45:32;;;;;;;7.26;6.79;;;;;;;21.40;68.92;100615.78;471008;112;922600;-77
2022/07/28 03:46:35;;;;;;;7.00;6.54;;;;;;;21.42;68.99;100626.59;463102;112;922445;-77
2022/07/28 03:47:38;;;;;;;6.70;6.22;;;;;;;21.45;69.05;100628.78;462847;114;922518;-76
2022/07/28 03:48:41;;;;;;;7.02;6.14;;;;;;;21.47;69.01;100623.80;462862;114;922567;-77
2022/07/28 03:49:45;;;;;;;6.79;6.38;;;;;;;21.48;69.08;100626.30;462795;114;922503;-78
2022/07/28 03:50:48;;;;;;;6.51;6.00;;;;;;;21.51;69.06;100627.64;462865;114;922565;-77
2022/07/28 03:51:51;;;;;;;6.60;6.20;;;;;;;21.54;69.07;100627.09;462847;114;923066;-77
2022/07/28 03:52:55;;;;;;;6.96;6.22;;;;;;;21.56;68.95;100627.61;462844;114;922539;-77
2022/07/28 03:53:58;;;;;;;7.02;6.39;;;;;;;21.57;68.83;100623.73;462658;114;922912;-79
2022/07/28 03:55:01;;;;;;;6.58;6.06;;;;;;;21.59;68.79;100618.73;462799;114;922538;-79
2022/07/28 03:56:05;;;;;;;6.29;5.89;;;;;;;21.59;68.73;100621.52;462843;114;923083;-79
2022/07/28 03:57:08;;;;;;;7.20;6.80;;;;;;;21.61;68.76;100631.19;462706;114;922850;-79
2022/07/28 03:58:11;;;;;;;6.72;6.22;;;;;;;21.63;68.75;100633.69;462819;114;923298;-77
2022/07/28 03:59:14;;;;;;;6.96;6.51;;;;;;;21.64;68.74;100632.58;462725;114;923073;-78
2022/07/28 04:00:19;;;;;;;6.95;6.41;;;;;;;21.64;68.76;100627.86;462668;114;922810;-78
2022/07/28 04:01:23;;;;;;;7.24;6.67;;;;;;;21.68;68.74;100632.81;462587;114;923519;-77
2022/07/28 04:02:26;;;;;;;7.05;6.61;;;;;;;21.69;68.71;100632.54;462688;114;930554;-77
2022/07/28 04:03:29;;;;;;;12.44;6.95;;;;;;;21.70;68.70;100633.37;462749;114;930572;-77
2022/07/28 04:04:34;;;;;;;6.44;5.86;;;;;;;21.71;68.74;100629.48;459369;114;922632;-77
2022/07/28 04:05:37;;;;;;;7.14;6.66;;;;;;;21.75;68.99;100636.11;462870;114;923105;-77
2022/07/28 04:06:40;;;;;;;6.96;6.32;;;;;;;21.75;68.99;100636.11;463332;112;923035;-78
2022/07/28 04:07:47;;;;;;;7.06;6.46;;;;;;;21.76;68.64;100633.06;471112;112;922582;-78
2022/07/28 04:08:50;;;;;;;6.83;6.34;;;;;;;21.79;68.69;100634.41;470900;112;922598;-77
2022/07/28 04:09:53;;;;;;;6.81;6.39;;;;;;;21.78;68.83;100630.80;471037;112;922687;-77
2022/07/28 04:10:56;;;;;;;7.54;6.61;;;;;;;21.82;68.73;100633.86;471090;112;922992;-77
2022/07/28 04:12:00;;;;;;;7.66;6.73;;;;;;;21.83;68.75;100629.97;471090;112;922953;-77
2022/07/28 04:13:03;;;;;;;7.03;6.36;;;;;;;21.85;68.75;100636.04;471093;112;922523;-78
2022/07/28 04:14:06;;;;;;;7.54;6.30;;;;;;;21.85;68.67;100631.33;471125;112;922950;-77
2022/07/28 04:15:14;;;;;;;6.67;6.22;;;;;;;21.87;68.59;100625.48;478114;110;922584;-76
2022/07/28 04:16:17;;;;;;;6.75;6.28;;;;;;;21.88;68.61;100639.09;482317;110;923052;-77
2022/07/28 04:17:21;;;;;;;7.16;6.59;;;;;;;21.90;68.58;100638.78;482515;110;922580;-77
2022/07/28 04:18:24;;;;;;;7.46;6.88;;;;;;;21.92;68.55;100631.00;482550;110;922569;-77
2022/07/28 04:19:27;;;;;;;6.85;6.32;;;;;;;21.93;68.50;100627.95;482516;110;922601;-77
2022/07/28 04:20:31;;;;;;;7.16;6.56;;;;;;;21.95;68.47;100627.67;482499;110;922564;-77
2022/07/28 04:21:34;;;;;;;7.42;6.94;;;;;;;21.96;68.51;100632.94;482569;110;922525;-77
2022/07/28 04:22:37;;;;;;;7.16;6.59;;;;;;;22.00;68.51;100633.17;482563;110;922480;-77
2022/07/28 04:23:40;;;;;;;7.45;6.93;;;;;;;22.01;68.40;100630.13;482495;110;922535;-77
2022/07/28 04:24:43;;;;;;;7.12;6.56;;;;;;;22.04;68.35;100625.95;482527;110;922933;-77
2022/07/28 04:25:46;;;;;;;7.80;6.51;;;;;;;22.05;68.30;100625.64;482584;110;923059;-77
2022/07/28 04:26:49;;;;;;;6.38;5.87;;;;;;;22.08;68.22;100628.97;482580;110;922839;-78
2022/07/28 04:27:53;;;;;;;7.14;6.63;;;;;;;22.10;68.18;100626.73;482575;110;922859;-77
2022/07/28 04:28:56;;;;;;;8.28;6.65;;;;;;;22.11;68.20;100629.20;482466;110;922559;-77
2022/07/28 04:29:59;;;;;;;6.69;6.29;;;;;;;22.12;68.09;100628.09;470960;110;930397;-77
2022/07/28 04:31:02;;;;;;;6.71;6.29;;;;;;;22.14;68.04;100630.59;463173;114;922911;-77
2022/07/28 04:32:05;;;;;;;7.13;6.53;;;;;;;22.16;68.04;100631.14;462859;114;922477;-77
2022/07/28 04:33:08;;;;;;;7.11;6.69;;;;;;;22.19;67.91;100630.54;462800;114;922512;-77
2022/07/28 04:34:13;;;;;;;7.21;6.70;;;;;;;22.19;67.86;100628.59;466491;113;922508;-77
2022/07/28 04:35:18;;;;;;;7.15;6.51;;;;;;;22.22;67.84;100621.65;468630;113;922588;-77
2022/07/28 04:36:22;;;;;;;7.34;6.69;;;;;;;22.23;67.79;100629.66;468607;113;923129;-77
2022/07/28 04:37:26;;;;;;;6.52;6.03;;;;;;;22.26;67.84;100623.55;468811;113;922732;-77
2022/07/28 04:38:31;;;;;;;7.03;6.62;;;;;;;22.28;67.76;100631.56;468092;113;922550;-77
2022/07/28 04:39:34;;;;;;;7.18;6.65;;;;;;;22.30;67.75;100624.61;468703;112;923212;-77
2022/07/28 04:40:37;;;;;;;7.58;7.08;;;;;;;22.33;67.71;100625.96;468740;113;922466;-77
2022/07/28 04:41:41;;;;;;;7.79;7.17;;;;;;;22.35;67.64;100626.51;468756;113;930506;-77
2022/07/28 04:42:44;;;;;;;7.28;6.78;;;;;;;22.36;67.68;100617.06;463855;112;923009;-78
2022/07/28 04:43:47;;;;;;;7.03;6.50;;;;;;;22.39;67.65;100619.23;462833;114;922495;-77
2022/07/28 04:44:50;;;;;;;6.18;5.73;;;;;;;22.40;67.66;100618.12;462808;114;922551;-77
2022/07/28 04:45:53;;;;;;;7.43;6.93;;;;;;;22.41;67.62;100619.79;462838;114;922812;-77
2022/07/28 04:46:57;;;;;;;7.17;6.68;;;;;;;22.43;67.57;100623.11;462744;114;922854;-77
2022/07/28 04:48:01;;;;;;;6.56;6.08;;;;;;;22.45;67.50;100615.30;462875;114;923045;-78
2022/07/28 04:49:04;;;;;;;6.75;6.24;;;;;;;22.46;67.46;100628.91;462761;114;922583;-76
2022/07/28 04:50:09;;;;;;;7.46;6.22;;;;;;;22.49;67.38;100626.67;462718;114;922499;-79
2022/07/28 04:51:12;;;;;;;7.91;6.52;;;;;;;22.50;67.35;100629.14;462524;114;930497;-79
2022/07/28 04:52:16;;;;;;;6.22;5.70;;;;;;;22.52;67.35;100624.13;462701;114;930565;-78
2022/07/28 04:53:19;;;;;;;8.47;6.41;;;;;;;22.54;67.27;100629.40;462786;114;922647;-79
2022/07/28 04:54:22;;;;;;;6.17;5.69;;;;;;;22.56;67.26;100627.14;462706;114;922917;-76
2022/07/28 04:55:27;;;;;;;7.16;6.71;;;;;;;22.58;67.21;100628.52;462299;112;922869;-79
2022/07/28 04:56:31;;;;;;;6.69;6.15;;;;;;;22.61;67.21;100625.13;462671;114;922536;-78
2022/07/28 04:57:35;;;;;;;7.84;6.72;;;;;;;22.63;67.16;100634.02;462546;114;930485;-76
2022/07/28 04:58:39;;;;;;;9.99;6.58;;;;;;;22.66;67.26;100632.62;462635;114;922597;-76
2022/07/28 04:59:41;;;;;;;6.94;6.47;;;;;;;22.68;67.25;100633.13;462662;114;923346;-77
2022/07/28 05:00:45;;;;;;;9.21;6.25;;;;;;;22.70;67.17;100630.90;462612;114;922895;-76
2022/07/28 05:01:50;;;;;;;6.21;5.62;;;;;;;22.72;67.23;100631.45;462363;110;922892;-77
2022/07/28 05:02:57;;;;;;;8.00;6.78;;;;;;;22.75;67.17;100625.31;462662;114;922633;-77
2022/07/28 05:03:59;;;;;;;6.74;6.04;;;;;;;22.77;67.14;100637.78;462494;114;930462;-77
2022/07/28 05:05:02;;;;;;;7.34;6.74;;;;;;;22.79;67.13;100632.77;462718;114;922882;-76